createdAt,value
2018-12-04T00:02:17.735Z,0.40
2018-12-04T00:04:45.185Z,0.40
2018-12-04T00:07:12.646Z,0.40
2018-12-04T00:09:40.090Z,0.40
2018-12-04T00:12:07.579Z,0.63
2018-12-04T00:14:35.096Z,0.40
2018-12-04T00:17:02.687Z,0.40
2018-12-04T00:19:30.132Z,0.50
2018-12-04T00:21:57.586Z,0.50
2018-12-04T00:24:25.074Z,0.63
2018-12-04T00:26:52.517Z,0.60
2018-12-04T00:29:19.962Z,0.50
2018-12-04T00:31:47.445Z,0.40
2018-12-04T00:34:14.910Z,0.40
2018-12-04T00:36:42.388Z,0.80
2018-12-04T00:39:09.830Z,0.50
2018-12-04T00:41:37.286Z,0.50
2018-12-04T00:44:04.737Z,0.67
2018-12-04T00:46:32.223Z,0.40
2018-12-04T00:48:59.742Z,0.40
2018-12-04T00:51:27.186Z,0.63
2018-12-04T00:53:54.634Z,1.90
2018-12-04T00:56:22.087Z,0.80
2018-12-04T00:58:49.698Z,0.50
2018-12-04T01:01:17.269Z,0.53
2018-12-04T01:03:44.757Z,0.50
2018-12-04T01:06:12.283Z,0.50
2018-12-04T01:08:39.742Z,0.50
2018-12-04T01:11:07.199Z,0.40
2018-12-04T01:13:34.648Z,0.50
2018-12-04T01:16:02.171Z,0.43
2018-12-04T01:18:29.614Z,0.50
2018-12-04T01:20:57.054Z,0.40
2018-12-04T01:23:24.502Z,0.50
2018-12-04T01:25:51.983Z,0.40
2018-12-04T01:28:19.482Z,0.40
2018-12-04T01:30:46.960Z,0.50
2018-12-04T01:33:14.443Z,0.40
2018-12-04T01:35:41.887Z,0.50
2018-12-04T01:38:09.347Z,0.53
2018-12-04T01:40:36.912Z,0.40
2018-12-04T01:43:04.353Z,0.40
2018-12-04T01:45:31.798Z,0.70
2018-12-04T01:47:59.290Z,0.57
2018-12-04T01:50:26.743Z,0.60
2018-12-04T01:52:54.202Z,0.60
2018-12-04T01:55:21.726Z,0.40
2018-12-04T01:57:49.173Z,0.40
2018-12-04T02:00:16.618Z,0.53
2018-12-04T02:02:44.107Z,0.50
2018-12-04T02:05:11.539Z,0.70
2018-12-04T02:07:38.992Z,0.70
2018-12-04T02:10:06.550Z,0.50
2018-12-04T02:12:34.046Z,0.90
2018-12-04T02:15:01.513Z,0.67
2018-12-04T02:17:29.066Z,0.50
2018-12-04T02:19:56.510Z,0.50
2018-12-04T02:22:23.996Z,0.53
2018-12-04T02:24:51.437Z,0.70
2018-12-04T02:27:18.942Z,0.60
2018-12-04T02:29:46.962Z,0.70
2018-12-04T02:32:14.433Z,0.50
2018-12-04T02:34:41.890Z,0.40
2018-12-04T02:37:09.338Z,0.67
2018-12-04T02:39:36.796Z,0.50
2018-12-04T02:42:04.281Z,0.40
2018-12-04T02:44:31.745Z,0.70
2018-12-04T02:46:59.227Z,0.50
2018-12-04T02:49:26.709Z,0.40
2018-12-04T02:51:54.257Z,0.50
2018-12-04T02:54:21.706Z,0.60
2018-12-04T02:56:49.178Z,0.40
2018-12-04T02:59:16.630Z,0.50
2018-12-04T03:01:44.082Z,0.40
2018-12-04T03:04:11.539Z,0.50
2018-12-04T03:06:39.020Z,0.50
2018-12-04T03:09:06.683Z,0.60
2018-12-04T03:11:34.186Z,0.40
2018-12-04T03:14:01.652Z,0.70
2018-12-04T03:16:29.107Z,0.60
2018-12-04T03:18:56.562Z,0.50
2018-12-04T03:21:24.005Z,0.43
2018-12-04T03:23:51.459Z,0.40
2018-12-04T03:26:18.905Z,0.40
2018-12-04T03:28:46.357Z,0.40
2018-12-04T03:31:13.799Z,0.67
2018-12-04T03:33:41.329Z,0.50
2018-12-04T03:36:08.815Z,0.50
2018-12-04T03:38:36.342Z,0.40
2018-12-04T03:41:03.830Z,0.40
2018-12-04T03:43:31.357Z,0.40
2018-12-04T03:45:58.872Z,0.50
2018-12-04T03:48:26.330Z,0.43
2018-12-04T03:50:53.858Z,0.60
2018-12-04T03:53:21.306Z,0.40
2018-12-04T03:55:48.763Z,0.60
2018-12-04T03:58:16.221Z,0.40
2018-12-04T04:00:43.706Z,0.60
2018-12-04T04:03:11.208Z,0.40
2018-12-04T04:05:38.747Z,0.50
2018-12-04T04:08:06.225Z,0.60
2018-12-04T04:10:33.674Z,0.40
2018-12-04T04:13:01.158Z,0.40
2018-12-04T04:15:28.714Z,0.77
2018-12-04T04:17:56.237Z,0.40
2018-12-04T04:20:23.841Z,0.40
2018-12-04T04:22:51.323Z,0.60
2018-12-04T04:25:18.866Z,0.53
2018-12-04T04:27:46.317Z,0.40
2018-12-04T04:30:13.818Z,0.40
2018-12-04T04:32:41.262Z,0.50
2018-12-04T04:35:08.716Z,0.60
2018-12-04T04:37:36.165Z,0.50
2018-12-04T04:40:04.697Z,0.40
2018-12-04T04:42:32.238Z,0.60
2018-12-04T04:44:59.685Z,0.50
2018-12-04T04:47:27.214Z,0.50
2018-12-04T04:49:54.673Z,0.40
2018-12-04T04:52:22.134Z,0.40
2018-12-04T04:54:49.585Z,0.40
2018-12-04T04:57:17.044Z,0.30
2018-12-04T04:59:44.575Z,0.40
2018-12-04T05:02:12.032Z,0.67
2018-12-04T05:04:39.710Z,0.60
2018-12-04T05:07:07.167Z,0.40
2018-12-04T05:09:34.622Z,0.40
2018-12-04T05:12:02.105Z,0.40
2018-12-04T05:14:29.549Z,0.40
2018-12-04T05:16:56.989Z,0.40
2018-12-04T05:19:24.438Z,0.50
2018-12-04T05:21:51.909Z,0.40
2018-12-04T05:24:19.362Z,0.50
2018-12-04T05:26:46.830Z,0.50
2018-12-04T05:29:14.277Z,0.37
2018-12-04T05:31:41.717Z,0.50
2018-12-04T05:34:09.169Z,0.40
2018-12-04T05:36:36.630Z,0.50
2018-12-04T05:39:05.454Z,0.43
2018-12-04T05:41:32.888Z,0.40
2018-12-04T05:44:00.344Z,0.73
2018-12-04T05:46:27.995Z,0.50
2018-12-04T05:48:55.445Z,0.50
2018-12-04T05:51:22.890Z,0.50
2018-12-04T05:53:50.347Z,0.40
2018-12-04T05:56:17.821Z,0.40
2018-12-04T05:58:45.273Z,0.57
2018-12-04T06:01:12.769Z,0.40
2018-12-04T06:03:40.883Z,0.50
2018-12-04T06:06:08.469Z,0.50
2018-12-04T06:08:36.036Z,0.70
2018-12-04T06:11:03.611Z,0.40
2018-12-04T06:13:31.054Z,0.83
2018-12-04T06:15:58.933Z,0.50
2018-12-04T06:18:26.376Z,0.50
2018-12-04T06:20:54.150Z,0.50
2018-12-04T06:23:21.679Z,0.40
2018-12-04T06:25:49.165Z,0.50
2018-12-04T06:28:16.613Z,0.53
2018-12-04T06:30:44.534Z,0.70
2018-12-04T06:33:11.970Z,0.50
2018-12-04T06:35:39.426Z,0.80
2018-12-04T06:38:06.868Z,0.50
2018-12-04T06:40:34.326Z,0.40
2018-12-04T06:43:01.900Z,0.70
2018-12-04T06:45:29.353Z,0.50
2018-12-04T06:47:56.797Z,0.60
2018-12-04T06:50:24.250Z,0.50
2018-12-04T06:52:51.701Z,0.40
2018-12-04T06:55:19.481Z,0.50
2018-12-04T06:57:54.725Z,0.47
2018-12-04T07:00:22.213Z,0.50
2018-12-04T07:02:49.703Z,0.53
2018-12-04T07:05:17.151Z,0.40
2018-12-04T07:07:44.594Z,0.83
2018-12-04T07:10:12.089Z,0.70
2018-12-04T07:12:39.532Z,0.50
2018-12-04T07:15:07.129Z,0.40
2018-12-04T07:17:34.570Z,0.50
2018-12-04T07:20:02.025Z,0.53
2018-12-04T07:22:29.469Z,0.50
2018-12-04T07:24:56.921Z,0.40
2018-12-04T07:27:24.364Z,0.50
2018-12-04T07:29:51.858Z,0.70
2018-12-04T07:32:19.305Z,0.70
2018-12-04T07:34:46.763Z,0.60
2018-12-04T07:37:14.241Z,0.40
2018-12-04T07:39:41.699Z,0.60
2018-12-04T07:42:11.148Z,0.43
2018-12-04T07:44:39.089Z,0.57
2018-12-04T07:47:08.275Z,0.60
2018-12-04T07:49:45.624Z,0.53
2018-12-04T07:52:13.100Z,0.50
2018-12-04T07:54:40.627Z,0.40
2018-12-04T07:57:08.083Z,0.60
2018-12-04T07:59:35.656Z,0.50
2018-12-04T08:02:03.974Z,0.50
2018-12-04T08:04:31.487Z,0.47
2018-12-04T08:06:59.066Z,0.50
2018-12-04T08:09:26.573Z,0.80
2018-12-04T08:11:54.022Z,0.60
2018-12-04T08:14:21.884Z,0.60
2018-12-04T08:16:49.426Z,0.60
2018-12-04T08:19:17.776Z,0.60
2018-12-04T08:21:45.316Z,0.40
2018-12-04T08:24:12.806Z,0.70
2018-12-04T08:26:40.823Z,0.40
2018-12-04T08:29:09.146Z,0.50
2018-12-04T08:31:37.180Z,0.50
2018-12-04T08:34:04.647Z,0.70
2018-12-04T08:36:32.138Z,0.50
2018-12-04T08:39:00.270Z,0.63
2018-12-04T08:41:28.477Z,0.70
2018-12-04T08:43:58.043Z,0.60
2018-12-04T08:46:27.162Z,0.67
2018-12-04T08:48:56.437Z,0.60
2018-12-04T08:51:24.897Z,0.80
2018-12-04T08:53:53.445Z,0.40
2018-12-04T08:56:21.105Z,0.60
2018-12-04T08:58:49.931Z,0.63
2018-12-04T09:01:17.571Z,0.63
2018-12-04T09:03:45.343Z,0.47
2018-12-04T09:06:13.659Z,0.50
2018-12-04T09:08:42.231Z,0.47
2018-12-04T09:11:11.311Z,0.50
2018-12-04T09:13:39.164Z,0.50
2018-12-04T09:16:07.270Z,0.40
2018-12-04T09:18:35.382Z,0.70
2018-12-04T09:21:03.036Z,0.50
2018-12-04T09:23:30.613Z,0.70
2018-12-04T09:25:58.350Z,0.50
2018-12-04T09:28:26.028Z,0.53
2018-12-04T09:30:53.591Z,0.57
2018-12-04T09:33:21.747Z,0.60
2018-12-04T09:35:50.365Z,0.63
2018-12-04T09:38:19.031Z,0.60
2018-12-04T09:40:47.091Z,0.50
2018-12-04T09:43:14.823Z,0.60
2018-12-04T09:45:42.444Z,0.60
2018-12-04T09:48:10.181Z,0.50
2018-12-04T09:50:37.709Z,0.53
2018-12-04T09:53:05.193Z,0.70
2018-12-04T09:55:34.396Z,0.70
2018-12-04T09:58:02.747Z,0.67
2018-12-04T10:00:30.262Z,0.50
2018-12-04T10:02:57.797Z,0.50
2018-12-04T10:05:25.501Z,0.43
2018-12-04T10:07:52.958Z,0.60
2018-12-04T10:10:21.319Z,0.40
2018-12-04T10:12:48.809Z,0.30
2018-12-04T10:15:16.603Z,0.60
2018-12-04T10:17:44.951Z,0.60
2018-12-04T10:20:13.908Z,0.57
2018-12-04T10:22:41.686Z,0.90
2018-12-04T10:25:09.845Z,0.50
2018-12-04T10:27:38.303Z,0.60
2018-12-04T10:30:08.661Z,0.53
2018-12-04T10:32:37.083Z,1.10
2018-12-04T10:35:04.720Z,0.50
2018-12-04T10:37:33.127Z,0.77
2018-12-04T10:40:01.313Z,0.70
2018-12-04T10:42:29.029Z,0.80
2018-12-04T10:44:56.490Z,0.50
2018-12-04T10:47:26.396Z,0.60
2018-12-04T10:49:54.617Z,0.50
2018-12-04T10:52:22.240Z,0.50
2018-12-04T10:54:49.825Z,0.90
2018-12-04T10:57:17.406Z,0.70
2018-12-04T10:59:44.995Z,0.60
2018-12-04T11:02:27.798Z,0.77
2018-12-04T11:04:55.295Z,0.60
2018-12-04T11:07:22.737Z,0.70
2018-12-04T11:09:50.654Z,0.60
2018-12-04T11:12:18.177Z,0.60
2018-12-04T11:14:46.244Z,0.60
2018-12-04T11:17:13.702Z,0.40
2018-12-04T11:19:42.711Z,0.70
2018-12-04T11:22:10.499Z,0.50
2018-12-04T11:24:38.810Z,0.70
2018-12-04T11:27:06.261Z,0.70
2018-12-04T11:29:34.512Z,0.60
2018-12-04T11:32:02.098Z,0.50
2018-12-04T11:34:29.550Z,0.60
2018-12-04T11:36:57.675Z,0.40
2018-12-04T11:39:25.155Z,0.50
2018-12-04T11:41:53.239Z,0.60
2018-12-04T11:44:21.222Z,0.53
2018-12-04T11:46:48.722Z,0.80
2018-12-04T11:49:16.213Z,0.60
2018-12-04T11:51:45.504Z,0.50
2018-12-04T11:54:13.041Z,0.60
2018-12-04T11:56:40.486Z,0.73
2018-12-04T11:59:08.852Z,0.60
2018-12-04T12:01:36.589Z,0.60
2018-12-04T12:04:05.054Z,1.47
2018-12-04T12:06:32.717Z,0.63
2018-12-04T12:09:00.364Z,0.70
2018-12-04T12:11:27.883Z,0.50
2018-12-04T12:13:55.351Z,0.50
2018-12-04T12:16:22.973Z,0.50
2018-12-04T12:18:51.467Z,1.20
2018-12-04T12:21:19.483Z,0.60
2018-12-04T12:23:47.571Z,0.60
2018-12-04T12:26:15.017Z,0.50
2018-12-04T12:28:43.118Z,0.60
2018-12-04T12:31:10.606Z,0.60
2018-12-04T12:33:38.281Z,0.63
2018-12-04T12:36:05.776Z,0.40
2018-12-04T12:38:33.961Z,0.80
2018-12-04T12:41:01.401Z,0.80
2018-12-04T12:43:28.933Z,0.50
2018-12-04T12:45:56.589Z,0.70
2018-12-04T12:48:24.155Z,0.53
2018-12-04T12:50:51.597Z,0.70
2018-12-04T12:53:19.137Z,0.73
2018-12-04T12:55:46.667Z,0.80
2018-12-04T12:58:14.145Z,0.90
2018-12-04T13:00:41.647Z,0.60
2018-12-04T13:03:09.185Z,0.60
2018-12-04T13:05:37.376Z,0.70
2018-12-04T13:08:05.017Z,0.70
2018-12-04T13:10:32.592Z,0.70
2018-12-04T13:13:00.088Z,0.50
2018-12-04T13:15:27.571Z,0.87
2018-12-04T13:17:55.045Z,0.70
2018-12-04T13:20:22.634Z,0.60
2018-12-04T13:22:50.090Z,0.60
2018-12-04T13:25:17.825Z,0.70
2018-12-04T13:27:46.125Z,0.60
2018-12-04T13:30:13.634Z,0.60
2018-12-04T13:32:41.074Z,0.50
2018-12-04T13:35:08.693Z,0.60
2018-12-04T13:37:36.424Z,0.60
2018-12-04T13:40:08.675Z,1.00
2018-12-04T13:42:34.643Z,0.50
2018-12-04T13:45:02.181Z,0.50
2018-12-04T13:47:29.824Z,0.50
2018-12-04T13:49:57.332Z,0.60
2018-12-04T13:52:24.811Z,0.60
2018-12-04T13:54:52.452Z,0.50
2018-12-04T13:57:19.959Z,0.50
2018-12-04T13:59:47.423Z,0.70
2018-12-04T14:02:14.903Z,0.40
2018-12-04T14:04:42.489Z,0.60
2018-12-04T14:07:11.583Z,0.80
2018-12-04T14:09:43.750Z,0.57
2018-12-04T14:12:11.508Z,0.70
2018-12-04T14:14:40.302Z,0.53
2018-12-04T14:17:17.113Z,0.50
2018-12-04T14:19:50.177Z,0.60
2018-12-04T14:22:21.917Z,0.70
2018-12-04T14:24:52.404Z,0.57
2018-12-04T14:27:21.172Z,0.50
2018-12-04T14:29:52.846Z,0.73
2018-12-04T14:32:23.964Z,1.77
2018-12-04T14:34:55.287Z,1.00
2018-12-04T14:37:23.078Z,0.80
2018-12-04T14:39:50.664Z,0.57
2018-12-04T14:42:20.867Z,0.60
2018-12-04T14:44:49.474Z,1.10
2018-12-04T14:47:20.753Z,0.90
2018-12-04T14:49:48.279Z,0.67
2018-12-04T14:52:19.536Z,0.80
2018-12-04T14:54:48.073Z,0.90
2018-12-04T14:57:17.470Z,1.00
2018-12-04T14:59:46.638Z,0.90
2018-12-04T15:02:15.787Z,1.20
2018-12-04T15:04:43.367Z,1.23
2018-12-04T15:07:18.567Z,1.87
2018-12-04T15:09:48.092Z,1.53
2018-12-04T15:12:16.065Z,1.00
2018-12-04T15:14:49.591Z,0.70
2018-12-04T15:17:19.126Z,1.00
2018-12-04T15:19:46.684Z,1.33
2018-12-04T15:22:14.172Z,0.90
2018-12-04T15:24:42.923Z,0.97
2018-12-04T15:27:10.736Z,0.90
2018-12-04T15:29:38.447Z,1.20
2018-12-04T15:32:07.779Z,1.40
2018-12-04T15:34:38.507Z,0.90
2018-12-04T15:37:09.347Z,1.30
2018-12-04T15:39:41.009Z,1.37
2018-12-04T15:42:08.581Z,1.40
2018-12-04T15:44:38.852Z,1.30
2018-12-04T15:47:07.067Z,1.80
2018-12-04T15:49:37.655Z,3.67
2018-12-04T15:52:06.132Z,2.20
2018-12-04T15:54:33.680Z,1.63
2018-12-04T15:57:01.341Z,1.63
2018-12-04T15:59:28.918Z,2.57
2018-12-04T16:01:57.216Z,1.47
2018-12-04T16:04:24.696Z,1.83
2018-12-04T16:06:54.097Z,2.13
2018-12-04T16:09:21.577Z,1.83
2018-12-04T16:11:49.130Z,2.20
2018-12-04T16:14:16.572Z,1.80
2018-12-04T16:16:44.130Z,2.10
2018-12-04T16:19:12.395Z,2.63
2018-12-04T16:21:39.899Z,2.30
2018-12-04T16:24:07.712Z,10.17
2018-12-04T16:26:35.307Z,2.93
2018-12-04T16:29:02.789Z,1.80
2018-12-04T16:31:31.180Z,2.00
2018-12-04T16:33:58.884Z,3.50
2018-12-04T16:36:27.006Z,3.13
2018-12-04T16:38:54.509Z,2.67
2018-12-04T16:41:23.131Z,2.73
2018-12-04T16:43:50.578Z,2.10
2018-12-04T16:46:18.413Z,2.97
2018-12-04T16:48:45.955Z,2.17
2018-12-04T16:51:13.611Z,2.40
2018-12-04T16:53:41.532Z,2.30
2018-12-04T16:56:09.118Z,3.03
2018-12-04T16:58:36.840Z,2.57
2018-12-04T17:01:04.352Z,2.30
2018-12-04T17:03:32.455Z,2.20
2018-12-04T17:06:00.027Z,2.03
2018-12-04T17:08:27.664Z,1.90
2018-12-04T17:10:55.247Z,2.43
2018-12-04T17:13:22.871Z,2.17
2018-12-04T17:15:50.442Z,3.23
2018-12-04T17:18:18.073Z,2.03
2018-12-04T17:20:45.815Z,2.40
2018-12-04T17:23:13.373Z,2.13
2018-12-04T17:25:40.933Z,2.20
2018-12-04T17:28:08.475Z,2.33
2018-12-04T17:30:36.617Z,3.23
2018-12-04T17:33:04.824Z,2.13
2018-12-04T17:35:32.397Z,2.07
2018-12-04T17:38:00.648Z,2.67
2018-12-04T17:40:28.162Z,2.60
2018-12-04T17:42:55.709Z,2.33
2018-12-04T17:45:23.213Z,3.40
2018-12-04T17:47:50.789Z,2.73
2018-12-04T17:50:18.365Z,3.10
2018-12-04T17:52:45.909Z,2.57
2018-12-04T17:55:13.602Z,2.40
2018-12-04T17:57:41.137Z,3.13
2018-12-04T18:00:11.248Z,2.60
2018-12-04T18:02:41.252Z,2.40
2018-12-04T18:05:09.687Z,2.57
2018-12-04T18:07:38.153Z,2.70
2018-12-04T18:10:07.011Z,1.60
2018-12-04T18:12:34.583Z,1.67
2018-12-04T18:15:02.149Z,1.60
2018-12-04T18:17:29.923Z,2.80
2018-12-04T18:19:57.606Z,1.80
2018-12-04T18:22:25.328Z,1.53
2018-12-04T18:24:52.943Z,1.53
2018-12-04T18:27:20.511Z,1.40
2018-12-04T18:29:47.964Z,2.03
2018-12-04T18:32:15.527Z,2.10
2018-12-04T18:34:43.071Z,1.60
2018-12-04T18:37:12.135Z,1.73
2018-12-04T18:39:39.709Z,1.60
2018-12-04T18:42:07.314Z,1.70
2018-12-04T18:44:35.035Z,1.47
2018-12-04T18:47:02.537Z,1.50
2018-12-04T18:49:30.786Z,1.50
2018-12-04T18:51:58.347Z,1.97
2018-12-04T18:54:26.344Z,1.37
2018-12-04T18:56:53.849Z,1.90
2018-12-04T18:59:21.533Z,1.37
2018-12-04T19:01:49.137Z,1.17
2018-12-04T19:04:16.628Z,1.67
2018-12-04T19:06:44.338Z,2.07
2018-12-04T19:09:12.904Z,2.00
2018-12-04T19:11:41.227Z,1.77
2018-12-04T19:14:10.166Z,1.70
2018-12-04T19:16:37.717Z,2.00
2018-12-04T19:19:06.998Z,2.03
2018-12-04T19:21:34.521Z,2.90
2018-12-04T19:24:02.774Z,2.60
2018-12-04T19:26:31.683Z,2.00
2018-12-04T19:29:03.222Z,2.27
2018-12-04T19:31:33.738Z,3.23
2018-12-04T19:34:03.512Z,2.77
2018-12-04T19:36:31.497Z,2.40
2018-12-04T19:38:59.077Z,2.37
2018-12-04T19:44:02.938Z,3.00
2018-12-04T19:46:31.041Z,2.10
2018-12-04T19:48:58.608Z,1.83
2018-12-04T19:51:26.429Z,2.30
2018-12-04T19:53:54.061Z,2.20
2018-12-04T19:56:21.588Z,2.23
2018-12-04T19:58:49.043Z,2.20
2018-12-04T20:01:16.985Z,1.53
2018-12-04T20:03:45.395Z,2.40
2018-12-04T20:06:13.054Z,2.80
2018-12-04T20:08:46.221Z,2.60
2018-12-04T20:11:13.710Z,2.30
2018-12-04T20:13:41.277Z,2.80
2018-12-04T20:16:08.795Z,2.00
2018-12-04T20:18:36.443Z,3.03
2018-12-04T20:21:03.982Z,2.30
2018-12-04T20:23:31.682Z,2.83
2018-12-04T20:25:59.377Z,3.70
2018-12-04T20:28:27.180Z,3.17
2018-12-04T20:30:55.083Z,2.77
2018-12-04T20:33:22.783Z,2.50
2018-12-04T20:35:50.284Z,3.10
2018-12-04T20:38:17.802Z,2.70
2018-12-04T20:40:45.240Z,3.40
2018-12-04T20:43:12.685Z,2.93
2018-12-04T20:45:40.206Z,4.07
2018-12-04T20:48:07.875Z,3.90
2018-12-04T20:50:35.344Z,3.23
2018-12-04T20:53:02.789Z,3.40
2018-12-04T20:55:30.471Z,3.20
2018-12-04T20:57:57.902Z,2.87
2018-12-04T21:00:25.358Z,4.40
2018-12-04T21:02:53.333Z,3.30
2018-12-04T21:05:21.022Z,3.57
2018-12-04T21:07:48.460Z,3.23
2018-12-04T21:10:15.913Z,3.50
2018-12-04T21:12:43.432Z,3.00
2018-12-04T21:15:11.109Z,3.37
2018-12-04T21:17:38.542Z,2.57
2018-12-04T21:20:06.386Z,3.13
2018-12-04T21:22:33.835Z,2.80
2018-12-04T21:25:01.295Z,3.40
2018-12-04T21:27:34.483Z,2.87
2018-12-04T21:30:07.690Z,3.20
2018-12-04T21:32:40.876Z,3.20
2018-12-04T21:35:14.080Z,3.60
2018-12-04T21:37:47.254Z,4.50
2018-12-04T21:40:20.476Z,4.47
2018-12-04T21:42:53.762Z,5.00
2018-12-04T21:45:26.967Z,4.17
2018-12-04T21:47:56.354Z,4.50
2018-12-04T21:50:23.817Z,4.23
2018-12-04T21:52:51.291Z,4.37
2018-12-04T21:55:18.746Z,5.23
2018-12-04T21:57:46.211Z,4.50
2018-12-04T22:00:13.670Z,3.80
2018-12-04T22:02:41.104Z,3.80
2018-12-04T22:05:08.598Z,3.43
2018-12-04T22:07:36.047Z,4.07
2018-12-04T22:10:05.285Z,4.57
2018-12-04T22:12:32.743Z,3.10
2018-12-04T22:15:00.192Z,3.50
2018-12-04T22:17:27.635Z,3.90
2018-12-04T22:19:55.120Z,3.80
2018-12-04T22:22:22.569Z,4.00
2018-12-04T22:24:50.033Z,3.60
2018-12-04T22:27:17.473Z,3.30
2018-12-04T22:29:44.930Z,4.20
2018-12-04T22:32:12.377Z,3.13
2018-12-04T22:34:39.832Z,2.83
2018-12-04T22:37:07.278Z,3.10
2018-12-04T22:39:34.730Z,3.73
2018-12-04T22:42:02.229Z,2.90
2018-12-04T22:44:29.757Z,3.40
2018-12-04T22:46:57.209Z,3.50
2018-12-04T22:49:24.701Z,2.63
2018-12-04T22:51:52.133Z,3.30
2018-12-04T22:54:19.622Z,3.33
2018-12-04T22:56:47.077Z,2.43
2018-12-04T22:59:14.534Z,3.13
2018-12-04T23:01:42.030Z,3.67
2018-12-04T23:04:09.561Z,2.43
2018-12-04T23:06:37.211Z,3.43
2018-12-04T23:09:07.589Z,3.10
2018-12-04T23:11:35.633Z,3.00
2018-12-04T23:14:03.165Z,3.30
2018-12-04T23:16:30.789Z,3.57
2018-12-04T23:18:58.237Z,2.93
2018-12-04T23:21:25.694Z,3.47
2018-12-04T23:23:53.141Z,3.80
2018-12-04T23:26:20.643Z,4.07
2018-12-04T23:28:48.130Z,3.10
2018-12-04T23:31:15.631Z,3.73
2018-12-04T23:33:43.122Z,3.67
2018-12-04T23:36:10.613Z,4.00
2018-12-04T23:38:38.089Z,3.17
2018-12-04T23:41:05.646Z,4.57
2018-12-04T23:43:33.089Z,3.30
2018-12-04T23:46:00.546Z,3.67
2018-12-04T23:48:27.997Z,3.40
2018-12-04T23:50:55.458Z,3.80
2018-12-04T23:53:22.913Z,3.23
2018-12-04T23:55:50.369Z,2.90
2018-12-04T23:58:17.827Z,3.03
